createdAt,value
2022-10-11T00:00:08.427Z,7.32
2022-10-11T00:05:08.070Z,4.38
2022-10-11T00:10:07.821Z,3.40
2022-10-11T00:15:08.509Z,5.70
2022-10-11T00:20:08.238Z,3.20
2022-10-11T00:25:10.626Z,3.45
2022-10-11T00:30:08.309Z,6.63
2022-10-11T00:35:08.011Z,5.88
2022-10-11T00:40:07.729Z,4.78
2022-10-11T00:45:08.410Z,3.33
2022-10-11T00:50:08.109Z,4.00
2022-10-11T00:55:07.858Z,2.78
2022-10-11T01:00:08.554Z,6.90
2022-10-11T01:05:28.056Z,2.97
2022-10-11T01:10:07.708Z,5.30
2022-10-11T01:15:08.426Z,3.53
2022-10-11T01:20:10.330Z,2.40
2022-10-11T01:25:08.025Z,2.83
2022-10-11T01:30:07.771Z,4.82
2022-10-11T01:35:08.504Z,3.55
2022-10-11T01:40:18.193Z,0
2022-10-11T01:45:07.901Z,4.80
2022-10-11T01:50:08.605Z,2.40
2022-10-11T01:55:09.954Z,4.70
2022-10-11T02:00:08.156Z,2.63
2022-10-11T02:05:07.848Z,5.25
2022-10-11T02:10:08.579Z,2.72
2022-10-11T02:15:08.289Z,4.05
2022-10-11T02:20:08.009Z,2.60
2022-10-11T02:25:07.710Z,4.78
2022-10-11T02:30:08.411Z,4.63
2022-10-11T02:35:08.108Z,2.80
2022-10-11T02:40:07.849Z,3.92
2022-10-11T02:45:08.543Z,2.80
2022-10-11T02:50:08.385Z,3.05
2022-10-11T02:55:08.076Z,3.35
2022-10-11T03:00:07.795Z,2.22
2022-10-11T03:05:08.518Z,3.22
2022-10-11T03:10:08.223Z,3.92
2022-10-11T03:15:07.922Z,2.30
2022-10-11T03:20:08.628Z,2.17
2022-10-11T03:25:08.338Z,3.20
2022-10-11T03:30:08.040Z,4.18
2022-10-11T03:35:07.767Z,3.33
2022-10-11T03:40:08.472Z,4.05
2022-10-11T03:45:08.222Z,3.05
2022-10-11T03:50:07.943Z,3.85
2022-10-11T03:55:08.611Z,2.95
2022-10-11T04:00:08.319Z,2.67
2022-10-11T04:05:02.158Z,1.88
2022-10-11T04:10:01.983Z,4.40
2022-10-11T04:15:01.928Z,2.20
2022-10-11T04:20:02.883Z,2.33
2022-10-11T04:25:02.799Z,2.95
2022-10-11T04:30:02.517Z,2.45
2022-10-11T04:35:04.535Z,4.05
2022-10-11T04:40:02.919Z,3.05
2022-10-11T04:45:02.809Z,2.40
2022-10-11T04:50:02.795Z,2.45
2022-10-11T04:55:02.636Z,2.42
2022-10-11T05:00:02.427Z,1.83
2022-10-11T05:05:02.277Z,2.35
2022-10-11T05:10:02.089Z,1.88
2022-10-11T05:15:01.896Z,5.55
2022-10-11T05:20:02.646Z,3.90
2022-10-11T05:25:02.551Z,1.70
2022-10-11T05:30:02.513Z,1.65
2022-10-11T05:35:02.338Z,1.60
2022-10-11T05:40:02.273Z,1.63
2022-10-11T05:45:02.099Z,1.75
2022-10-11T05:50:01.948Z,2.30
2022-10-11T05:55:01.758Z,1.52
2022-10-11T06:00:02.613Z,2.25
2022-10-11T06:05:02.450Z,2.53
2022-10-11T06:10:02.288Z,2.63
2022-10-11T06:15:02.181Z,2.20
2022-10-11T06:20:02.022Z,2.63
2022-10-11T06:25:01.859Z,2.90
2022-10-11T06:30:02.598Z,2.33
2022-10-11T06:35:02.338Z,2.80
2022-10-11T06:40:02.184Z,2.10
2022-10-11T06:45:01.961Z,2.20
2022-10-11T06:50:01.713Z,1.92
2022-10-11T06:55:02.779Z,2.33
2022-10-11T07:00:02.670Z,2.67
2022-10-11T07:05:02.631Z,2.50
2022-10-11T07:10:02.561Z,2.85
2022-10-11T07:15:02.489Z,3.08
2022-10-11T07:20:02.446Z,2.55
2022-10-11T07:25:02.333Z,2.88
2022-10-11T07:30:02.271Z,3.17
2022-10-11T07:35:02.108Z,4.07
2022-10-11T07:40:02.018Z,5.05
2022-10-11T07:45:01.754Z,6.53
2022-10-11T07:50:02.610Z,3.55
2022-10-11T07:55:02.445Z,5.15
2022-10-11T08:00:02.172Z,7.72
2022-10-11T08:05:02.018Z,4.65
2022-10-11T08:10:01.981Z,3.30
2022-10-11T08:15:01.767Z,6.70
2022-10-11T08:20:02.622Z,6.22
2022-10-11T08:25:02.457Z,8.05
2022-10-11T08:30:02.241Z,4.65
2022-10-11T08:35:02.159Z,5.30
2022-10-11T08:40:02.102Z,5.88
2022-10-11T08:45:11.041Z,4.80
2022-10-11T08:50:02.560Z,4.10
2022-10-11T08:55:12.379Z,0
2022-10-11T09:00:02.528Z,4.72
2022-10-11T09:05:02.462Z,4.60
2022-10-11T09:10:02.301Z,4.47
2022-10-11T09:15:02.101Z,5.88
2022-10-11T09:20:02.190Z,2.70
2022-10-11T09:25:12.029Z,0
2022-10-11T09:30:01.978Z,6.20
2022-10-11T09:35:01.827Z,4.82
2022-10-11T09:40:03.006Z,6.55
2022-10-11T09:45:01.991Z,6.38
2022-10-11T09:50:01.899Z,5.35
2022-10-11T09:55:02.938Z,5.57
2022-10-11T10:00:02.682Z,3.97
2022-10-11T10:05:02.636Z,4.75
2022-10-11T10:10:02.541Z,7.65
2022-10-11T10:15:02.485Z,6.25
2022-10-11T10:20:02.276Z,6.32
2022-10-11T10:25:02.133Z,4.75
2022-10-11T10:30:01.968Z,6.38
2022-10-11T10:35:11.743Z,0
2022-10-11T10:40:02.703Z,4.22
2022-10-11T10:45:02.525Z,5.55
2022-10-11T10:50:02.492Z,2.83
2022-10-11T10:55:02.442Z,7.68
2022-10-11T11:00:02.268Z,4.18
2022-10-11T11:05:02.099Z,7.80
2022-10-11T11:10:01.922Z,5.05
2022-10-11T11:15:02.861Z,4.43
2022-10-11T11:20:02.683Z,4.85
2022-10-11T11:25:02.500Z,7.43
2022-10-11T11:30:02.264Z,5.78
2022-10-11T11:35:02.067Z,2.70
2022-10-11T11:40:01.876Z,5.50
2022-10-11T11:45:02.671Z,4.53
2022-10-11T11:50:02.461Z,5.55
2022-10-11T11:55:04.188Z,5.30
2022-10-11T12:00:02.141Z,3.92
2022-10-11T12:05:01.979Z,7.20
2022-10-11T12:10:01.773Z,6.85
2022-10-11T12:15:02.533Z,3.70
2022-10-11T12:20:02.358Z,4.05
2022-10-11T12:25:02.187Z,5.05
2022-10-11T12:30:02.167Z,5.95
2022-10-11T12:35:02.061Z,5.97
2022-10-11T12:40:01.972Z,6.55
2022-10-11T12:45:01.805Z,5.55
2022-10-11T12:50:02.661Z,9.65
2022-10-11T12:55:12.578Z,0
2022-10-11T13:00:02.297Z,5.20
2022-10-11T13:05:02.050Z,6.47
2022-10-11T13:10:01.888Z,5.03
2022-10-11T13:15:02.640Z,4.32
2022-10-11T13:20:02.484Z,5.70
2022-10-11T13:25:02.281Z,2.20
2022-10-11T13:30:02.045Z,4.22
2022-10-11T13:35:01.861Z,6.82
2022-10-11T13:40:02.577Z,4.53
2022-10-11T13:45:02.318Z,4.18
2022-10-11T13:50:02.177Z,3.78
2022-10-11T13:55:01.971Z,2.20
2022-10-11T14:00:01.781Z,4.32
2022-10-11T14:05:02.575Z,2.60
2022-10-11T14:10:02.425Z,3.13
2022-10-11T14:15:02.212Z,3.40
2022-10-11T14:20:12.090Z,0
2022-10-11T14:25:01.988Z,1.02
2022-10-11T14:30:25.163Z,1.27
2022-10-11T14:35:02.133Z,1.85
2022-10-11T14:40:02.044Z,2.10
2022-10-11T14:45:01.901Z,5.05
2022-10-11T14:50:02.701Z,4.45
2022-10-11T14:55:02.576Z,4.75
2022-10-11T15:00:02.508Z,4.53
2022-10-11T15:05:02.468Z,2.72
2022-10-11T15:10:02.561Z,2.67
2022-10-11T15:15:02.517Z,3.38
2022-10-11T15:20:02.423Z,1.85
2022-10-11T15:25:02.272Z,4.07
2022-10-11T15:30:02.218Z,4.68
2022-10-11T15:35:02.129Z,3.13
2022-10-11T15:40:01.924Z,1.80
2022-10-11T15:45:02.754Z,5.95
2022-10-11T15:50:02.585Z,2.13
2022-10-11T15:55:02.363Z,5.88
2022-10-11T16:00:02.226Z,2.92
2022-10-11T16:05:02.062Z,2.65
2022-10-11T16:10:01.843Z,3.45
2022-10-11T16:15:02.613Z,3.60
2022-10-11T16:20:02.566Z,3.38
2022-10-11T16:25:02.358Z,1.52
2022-10-11T16:30:02.224Z,3.17
2022-10-11T16:35:02.036Z,3.13
2022-10-11T16:40:01.898Z,5.55
2022-10-11T16:45:02.720Z,5.50
2022-10-11T16:50:02.543Z,2.58
2022-10-11T16:55:02.481Z,2.97
2022-10-11T17:00:02.271Z,2.92
2022-10-11T17:05:02.054Z,5.22
2022-10-11T17:10:01.857Z,4.07
2022-10-11T17:15:02.628Z,2.35
2022-10-11T17:20:02.432Z,6.13
2022-10-11T17:25:02.249Z,4.03
2022-10-11T17:30:02.053Z,5.28
2022-10-11T17:35:01.830Z,2.83
2022-10-11T17:40:02.590Z,5.50
2022-10-11T17:45:02.509Z,3.17
2022-10-11T17:50:02.452Z,3.75
2022-10-11T17:55:02.363Z,5.00
2022-10-11T18:00:02.476Z,4.53
2022-10-11T18:05:02.322Z,2.67
2022-10-11T18:10:02.280Z,3.13
2022-10-11T18:15:02.179Z,2.58
2022-10-11T18:20:02.025Z,5.47
2022-10-11T18:25:01.891Z,8.43
2022-10-11T18:30:02.719Z,10.68
2022-10-11T18:35:02.557Z,10.75
2022-10-11T18:40:02.441Z,8.10
2022-10-11T18:45:02.489Z,11.52
2022-10-11T18:50:02.392Z,9.95
2022-10-11T18:55:02.137Z,12.07
2022-10-11T19:00:11.795Z,10.00
2022-10-11T19:05:02.531Z,7.22
2022-10-11T19:10:04.933Z,10.40
2022-10-11T19:15:02.868Z,6.40
2022-10-11T19:20:02.747Z,8.90
2022-10-11T19:25:02.592Z,10.45
2022-10-11T19:30:02.364Z,6.82
2022-10-11T19:35:02.203Z,5.63
2022-10-11T19:40:02.059Z,6.72
2022-10-11T19:45:01.954Z,5.25
2022-10-11T19:50:01.804Z,6.18
2022-10-11T19:55:02.764Z,6.75
2022-10-11T20:00:02.561Z,5.35
2022-10-11T20:05:02.698Z,4.70
2022-10-11T20:10:02.458Z,4.43
2022-10-11T20:15:02.285Z,6.20
2022-10-11T20:20:02.130Z,5.43
2022-10-11T20:25:02.010Z,3.35
2022-10-11T20:30:02.051Z,5.63
2022-10-11T20:35:21.677Z,5.07
2022-10-11T20:40:08.403Z,3.15
2022-10-11T20:45:08.129Z,2.85
2022-10-11T20:50:07.801Z,3.80
2022-10-11T20:55:08.475Z,3.72
2022-10-11T21:00:08.543Z,3.15
2022-10-11T21:05:08.265Z,2.92
2022-10-11T21:10:07.974Z,2.47
2022-10-11T21:15:07.693Z,5.80
2022-10-11T21:20:08.393Z,8.18
2022-10-11T21:25:08.107Z,7.88
2022-10-11T21:30:07.855Z,7.50
2022-10-11T21:35:08.569Z,8.70
2022-10-11T21:40:08.292Z,16.52
2022-10-11T21:45:07.976Z,19.60
2022-10-11T21:50:07.712Z,17.45
2022-10-11T21:55:08.445Z,14.80
2022-10-11T22:00:08.267Z,21.65
2022-10-11T22:05:07.950Z,21.25
2022-10-11T22:10:08.661Z,24.52
2022-10-11T22:15:08.309Z,20.95
2022-10-11T22:20:08.055Z,20.02
2022-10-11T22:25:07.797Z,17.52
2022-10-11T22:30:08.543Z,12.98
2022-10-11T22:35:08.251Z,8.18
2022-10-11T22:40:07.976Z,8.73
2022-10-11T22:45:07.694Z,6.70
2022-10-11T22:50:08.427Z,7.65
2022-10-11T22:55:08.110Z,7.57
2022-10-11T23:01:01.145Z,8.07
2022-10-11T23:05:07.841Z,8.35
2022-10-11T23:10:08.258Z,4.57
2022-10-11T23:15:07.944Z,5.53
2022-10-11T23:20:07.654Z,4.97
2022-10-11T23:25:08.362Z,6.75
2022-10-11T23:30:08.089Z,4.43
2022-10-11T23:35:07.833Z,3.75
2022-10-11T23:40:08.563Z,3.65
2022-10-11T23:45:08.281Z,5.38
2022-10-11T23:50:08.002Z,5.70
2022-10-11T23:55:07.696Z,3.70
